sensor_id;sensor_type;location;lat;lon;timestamp;pressure;altitude;pressure_sealevel;temperature;humidity
57038;BME280;59942;49.304;8.256;2024-02-26T00:01:16;98487.03;;;7.51;77.66
57038;BME280;59942;49.304;8.256;2024-02-26T00:03:42;98483.16;;;7.44;77.54
57038;BME280;59942;49.304;8.256;2024-02-26T00:06:11;98494.56;;;7.40;77.60
57038;BME280;59942;49.304;8.256;2024-02-26T00:08:40;98485.72;;;7.44;78.13
57038;BME280;59942;49.304;8.256;2024-02-26T00:11:08;98485.06;;;7.26;78.57
57038;BME280;59942;49.304;8.256;2024-02-26T00:13:35;98484.88;;;7.43;77.80
57038;BME280;59942;49.304;8.256;2024-02-26T00:16:03;98485.72;;;7.29;77.76
57038;BME280;59942;49.304;8.256;2024-02-26T00:18:35;98473.84;;;7.41;78.72
57038;BME280;59942;49.304;8.256;2024-02-26T00:21:02;98482.03;;;7.48;78.38
57038;BME280;59942;49.304;8.256;2024-02-26T00:23:29;98479.38;;;7.35;77.78
57038;BME280;59942;49.304;8.256;2024-02-26T00:25:58;98472.22;;;6.95;77.55
57038;BME280;59942;49.304;8.256;2024-02-26T00:28:27;98471.44;;;6.65;79.53
57038;BME280;59942;49.304;8.256;2024-02-26T00:30:55;98465.03;;;6.72;81.95
57038;BME280;59942;49.304;8.256;2024-02-26T00:33:22;98466.66;;;6.73;81.73
57038;BME280;59942;49.304;8.256;2024-02-26T00:35:54;98468.16;;;6.91;81.91
57038;BME280;59942;49.304;8.256;2024-02-26T00:38:20;98478.97;;;7.12;80.79
57038;BME280;59942;49.304;8.256;2024-02-26T00:40:47;98479.81;;;7.27;79.59
57038;BME280;59942;49.304;8.256;2024-02-26T00:43:16;98474.66;;;7.13;79.74
57038;BME280;59942;49.304;8.256;2024-02-26T00:45:42;98490.28;;;7.10;80.47
57038;BME280;59942;49.304;8.256;2024-02-26T00:48:15;98495.91;;;7.02;80.93
57038;BME280;59942;49.304;8.256;2024-02-26T00:50:44;98496.81;;;7.01;81.34
57038;BME280;59942;49.304;8.256;2024-02-26T00:53:13;98486.50;;;7.01;81.35
57038;BME280;59942;49.304;8.256;2024-02-26T00:55:39;98504.66;;;7.14;79.99
57038;BME280;59942;49.304;8.256;2024-02-26T00:58:06;98513.88;;;7.18;80.68
57038;BME280;59942;49.304;8.256;2024-02-26T01:00:32;98516.44;;;7.04;81.62
57038;BME280;59942;49.304;8.256;2024-02-26T01:02:59;98508.31;;;6.95;82.07
57038;BME280;59942;49.304;8.256;2024-02-26T01:05:31;98505.78;;;6.80;83.43
57038;BME280;59942;49.304;8.256;2024-02-26T01:07:57;98512.50;;;6.82;84.50
57038;BME280;59942;49.304;8.256;2024-02-26T01:10:24;98521.31;;;7.08;86.02
57038;BME280;59942;49.304;8.256;2024-02-26T01:12:53;98509.31;;;6.93;85.42
57038;BME280;59942;49.304;8.256;2024-02-26T01:15:22;98524.06;;;7.05;85.29
57038;BME280;59942;49.304;8.256;2024-02-26T01:17:55;98517.44;;;6.71;88.36
57038;BME280;59942;49.304;8.256;2024-02-26T01:20:21;98524.94;;;6.90;87.23
57038;BME280;59942;49.304;8.256;2024-02-26T01:22:48;98511.59;;;6.98;86.45
57038;BME280;59942;49.304;8.256;2024-02-26T01:25:16;98527.78;;;6.85;85.53
57038;BME280;59942;49.304;8.256;2024-02-26T01:27:43;98522.19;;;6.93;86.52
57038;BME280;59942;49.304;8.256;2024-02-26T01:30:13;98520.19;;;6.98;86.04
57038;BME280;59942;49.304;8.256;2024-02-26T01:32:42;98517.03;;;6.93;85.90
57038;BME280;59942;49.304;8.256;2024-02-26T01:35:09;98526.25;;;6.97;85.34
57038;BME280;59942;49.304;8.256;2024-02-26T01:37:38;98507.09;;;6.87;85.83
57038;BME280;59942;49.304;8.256;2024-02-26T01:40:05;98516.47;;;6.88;87.87
57038;BME280;59942;49.304;8.256;2024-02-26T01:42:38;98472.97;;;6.37;88.20
57038;BME280;59942;49.304;8.256;2024-02-26T01:45:05;98517.69;;;6.20;95.19
57038;BME280;59942;49.304;8.256;2024-02-26T01:47:33;98519.00;;;6.27;100.00
57038;BME280;59942;49.304;8.256;2024-02-26T01:50:00;98517.50;;;6.39;97.10
57038;BME280;59942;49.304;8.256;2024-02-26T01:52:27;98528.94;;;6.49;100.00
57038;BME280;59942;49.304;8.256;2024-02-26T01:54:56;98525.09;;;6.56;99.26
57038;BME280;59942;49.304;8.256;2024-02-26T01:57:22;98521.19;;;6.65;94.69
57038;BME280;59942;49.304;8.256;2024-02-26T01:59:49;98531.81;;;6.75;96.42
57038;BME280;59942;49.304;8.256;2024-02-26T02:02:18;98523.50;;;6.70;95.87
57038;BME280;59942;49.304;8.256;2024-02-26T02:04:45;98527.53;;;6.90;92.47
57038;BME280;59942;49.304;8.256;2024-02-26T02:07:15;98537.94;;;6.72;98.64
57038;BME280;59942;49.304;8.256;2024-02-26T02:09:42;98529.03;;;6.48;100.00
57038;BME280;59942;49.304;8.256;2024-02-26T02:12:09;98536.09;;;6.74;94.62
57038;BME280;59942;49.304;8.256;2024-02-26T02:14:36;98529.00;;;6.64;99.06
57038;BME280;59942;49.304;8.256;2024-02-26T02:17:04;98528.69;;;6.38;100.00
57038;BME280;59942;49.304;8.256;2024-02-26T02:19:31;98527.59;;;6.58;94.18
57038;BME280;59942;49.304;8.256;2024-02-26T02:21:58;98524.81;;;6.77;92.59
57038;BME280;59942;49.304;8.256;2024-02-26T02:24:27;98526.63;;;6.91;91.31
57038;BME280;59942;49.304;8.256;2024-02-26T02:26:53;98532.22;;;6.98;94.45
57038;BME280;59942;49.304;8.256;2024-02-26T02:29:20;98529.19;;;6.91;95.21
57038;BME280;59942;49.304;8.256;2024-02-26T02:31:47;98527.44;;;6.91;91.08
57038;BME280;59942;49.304;8.256;2024-02-26T02:34:14;98524.59;;;6.96;92.51
57038;BME280;59942;49.304;8.256;2024-02-26T02:36:51;98502.22;;;6.82;96.06
57038;BME280;59942;49.304;8.256;2024-02-26T02:39:18;98543.09;;;7.03;94.18
57038;BME280;59942;49.304;8.256;2024-02-26T02:41:45;98535.97;;;6.77;100.00
57038;BME280;59942;49.304;8.256;2024-02-26T02:44:14;98540.22;;;6.47;100.00
57038;BME280;59942;49.304;8.256;2024-02-26T02:46:40;98541.31;;;6.42;100.00
57038;BME280;59942;49.304;8.256;2024-02-26T02:49:10;98539.75;;;6.40;100.00
57038;BME280;59942;49.304;8.256;2024-02-26T02:51:40;98556.53;;;6.31;100.00
57038;BME280;59942;49.304;8.256;2024-02-26T02:54:07;98550.28;;;6.35;100.00
57038;BME280;59942;49.304;8.256;2024-02-26T02:56:33;98557.91;;;6.21;100.00
57038;BME280;59942;49.304;8.256;2024-02-26T02:59:00;98552.78;;;6.21;100.00
57038;BME280;59942;49.304;8.256;2024-02-26T03:01:29;98518.75;;;6.00;100.00
57038;BME280;59942;49.304;8.256;2024-02-26T03:03:58;98543.41;;;6.36;100.00
57038;BME280;59942;49.304;8.256;2024-02-26T03:06:25;98544.06;;;6.39;100.00
57038;BME280;59942;49.304;8.256;2024-02-26T03:08:53;98542.09;;;6.29;100.00
57038;BME280;59942;49.304;8.256;2024-02-26T03:11:23;98539.81;;;6.38;100.00
57038;BME280;59942;49.304;8.256;2024-02-26T03:13:49;98537.31;;;6.37;100.00
57038;BME280;59942;49.304;8.256;2024-02-26T03:16:17;98521.38;;;6.46;100.00
57038;BME280;59942;49.304;8.256;2024-02-26T03:18:46;98524.59;;;6.50;100.00
57038;BME280;59942;49.304;8.256;2024-02-26T03:21:13;98519.72;;;6.45;100.00
57038;BME280;59942;49.304;8.256;2024-02-26T03:23:41;98480.88;;;6.34;100.00
57038;BME280;59942;49.304;8.256;2024-02-26T03:26:13;98497.78;;;6.54;100.00
57038;BME280;59942;49.304;8.256;2024-02-26T03:28:42;98507.16;;;6.55;100.00
57038;BME280;59942;49.304;8.256;2024-02-26T03:31:11;98506.59;;;6.80;100.00
57038;BME280;59942;49.304;8.256;2024-02-26T03:33:37;98504.00;;;6.50;100.00
57038;BME280;59942;49.304;8.256;2024-02-26T03:36:04;98504.91;;;6.65;100.00
57038;BME280;59942;49.304;8.256;2024-02-26T03:38:34;98502.44;;;6.63;100.00
57038;BME280;59942;49.304;8.256;2024-02-26T03:41:00;98494.34;;;6.69;100.00
57038;BME280;59942;49.304;8.256;2024-02-26T03:43:26;98498.16;;;6.78;100.00
57038;BME280;59942;49.304;8.256;2024-02-26T03:45:53;98493.72;;;6.80;100.00
57038;BME280;59942;49.304;8.256;2024-02-26T03:48:20;98496.88;;;6.85;98.82
57038;BME280;59942;49.304;8.256;2024-02-26T03:50:46;98492.44;;;6.87;94.51
57038;BME280;59942;49.304;8.256;2024-02-26T03:53:15;98494.38;;;6.84;100.00
57038;BME280;59942;49.304;8.256;2024-02-26T03:55:42;98497.47;;;6.28;100.00
57038;BME280;59942;49.304;8.256;2024-02-26T03:58:12;98492.50;;;6.09;100.00
57038;BME280;59942;49.304;8.256;2024-02-26T04:00:45;98484.06;;;6.23;100.00
57038;BME280;59942;49.304;8.256;2024-02-26T04:03:16;98482.00;;;6.44;100.00
57038;BME280;59942;49.304;8.256;2024-02-26T04:05:43;98482.41;;;6.52;100.00
57038;BME280;59942;49.304;8.256;2024-02-26T04:08:10;98481.47;;;6.69;100.00
57038;BME280;59942;49.304;8.256;2024-02-26T04:10:42;98478.81;;;6.71;100.00
57038;BME280;59942;49.304;8.256;2024-02-26T04:13:08;98466.66;;;6.73;100.00
57038;BME280;59942;49.304;8.256;2024-02-26T04:15:35;98478.53;;;6.75;100.00
57038;BME280;59942;49.304;8.256;2024-02-26T04:18:01;98472.00;;;6.70;100.00
57038;BME280;59942;49.304;8.256;2024-02-26T04:20:30;98475.50;;;6.53;100.00
57038;BME280;59942;49.304;8.256;2024-02-26T04:22:57;98470.22;;;6.56;100.00
57038;BME280;59942;49.304;8.256;2024-02-26T04:25:23;98472.25;;;6.65;100.00
57038;BME280;59942;49.304;8.256;2024-02-26T04:27:52;98474.47;;;6.71;98.42
57038;BME280;59942;49.304;8.256;2024-02-26T04:30:21;98467.41;;;6.75;97.73
57038;BME280;59942;49.304;8.256;2024-02-26T04:32:48;98470.09;;;6.73;98.09
57038;BME280;59942;49.304;8.256;2024-02-26T04:35:17;98469.13;;;6.74;98.37
57038;BME280;59942;49.304;8.256;2024-02-26T04:37:43;98471.00;;;6.72;100.00
57038;BME280;59942;49.304;8.256;2024-02-26T04:40:10;98475.69;;;6.80;99.63
57038;BME280;59942;49.304;8.256;2024-02-26T04:42:39;98483.78;;;6.74;99.88
57038;BME280;59942;49.304;8.256;2024-02-26T04:45:13;98480.84;;;6.80;100.00
57038;BME280;59942;49.304;8.256;2024-02-26T04:47:40;98492.31;;;6.74;100.00
57038;BME280;59942;49.304;8.256;2024-02-26T04:50:09;98492.75;;;6.67;100.00
57038;BME280;59942;49.304;8.256;2024-02-26T04:52:36;98486.25;;;6.45;100.00
57038;BME280;59942;49.304;8.256;2024-02-26T04:55:03;98491.16;;;6.34;100.00
57038;BME280;59942;49.304;8.256;2024-02-26T04:57:30;98486.53;;;6.24;100.00
57038;BME280;59942;49.304;8.256;2024-02-26T04:59:56;98487.63;;;6.20;100.00
57038;BME280;59942;49.304;8.256;2024-02-26T05:02:23;98483.88;;;6.26;100.00
57038;BME280;59942;49.304;8.256;2024-02-26T05:04:52;98493.47;;;6.38;100.00
57038;BME280;59942;49.304;8.256;2024-02-26T05:07:18;98491.41;;;6.45;100.00
57038;BME280;59942;49.304;8.256;2024-02-26T05:09:48;98491.16;;;6.34;100.00
57038;BME280;59942;49.304;8.256;2024-02-26T05:12:18;98495.50;;;6.33;100.00
57038;BME280;59942;49.304;8.256;2024-02-26T05:14:50;98498.97;;;6.32;100.00
57038;BME280;59942;49.304;8.256;2024-02-26T05:17:16;98504.63;;;6.23;100.00
57038;BME280;59942;49.304;8.256;2024-02-26T05:19:43;98502.47;;;6.15;100.00
57038;BME280;59942;49.304;8.256;2024-02-26T05:22:09;98514.16;;;6.21;100.00
57038;BME280;59942;49.304;8.256;2024-02-26T05:24:37;98508.38;;;6.33;100.00
57038;BME280;59942;49.304;8.256;2024-02-26T05:27:05;98515.47;;;6.44;100.00
57038;BME280;59942;49.304;8.256;2024-02-26T05:29:31;98509.00;;;6.37;100.00
57038;BME280;59942;49.304;8.256;2024-02-26T05:31:58;98508.00;;;6.39;100.00
57038;BME280;59942;49.304;8.256;2024-02-26T05:34:24;98504.44;;;6.42;100.00
57038;BME280;59942;49.304;8.256;2024-02-26T05:36:51;98501.44;;;6.50;100.00
57038;BME280;59942;49.304;8.256;2024-02-26T05:39:17;98504.69;;;6.53;100.00
57038;BME280;59942;49.304;8.256;2024-02-26T05:41:46;98496.47;;;6.31;100.00
57038;BME280;59942;49.304;8.256;2024-02-26T05:44:13;98515.47;;;6.44;100.00
57038;BME280;59942;49.304;8.256;2024-02-26T05:46:41;98520.81;;;6.25;100.00
57038;BME280;59942;49.304;8.256;2024-02-26T05:49:12;98517.97;;;6.46;100.00
57038;BME280;59942;49.304;8.256;2024-02-26T05:51:38;98531.53;;;6.33;100.00
57038;BME280;59942;49.304;8.256;2024-02-26T05:54:05;98535.84;;;6.33;100.00
57038;BME280;59942;49.304;8.256;2024-02-26T05:56:34;98532.34;;;6.02;100.00
57038;BME280;59942;49.304;8.256;2024-02-26T05:59:03;98528.06;;;6.02;100.00
57038;BME280;59942;49.304;8.256;2024-02-26T06:01:30;98542.16;;;6.27;100.00
57038;BME280;59942;49.304;8.256;2024-02-26T06:03:57;98547.97;;;6.31;100.00
57038;BME280;59942;49.304;8.256;2024-02-26T06:06:23;98549.38;;;6.36;100.00
57038;BME280;59942;49.304;8.256;2024-02-26T06:08:50;98549.28;;;6.38;100.00
57038;BME280;59942;49.304;8.256;2024-02-26T06:11:21;98546.53;;;6.41;100.00
57038;BME280;59942;49.304;8.256;2024-02-26T06:13:49;98558.16;;;6.48;100.00
57038;BME280;59942;49.304;8.256;2024-02-26T06:16:18;98557.84;;;6.54;100.00
57038;BME280;59942;49.304;8.256;2024-02-26T06:18:44;98563.78;;;6.71;100.00
57038;BME280;59942;49.304;8.256;2024-02-26T06:21:13;98561.88;;;6.58;100.00
57038;BME280;59942;49.304;8.256;2024-02-26T06:23:40;98569.22;;;6.50;100.00
57038;BME280;59942;49.304;8.256;2024-02-26T06:26:09;98573.78;;;6.45;100.00
57038;BME280;59942;49.304;8.256;2024-02-26T06:28:36;98567.38;;;6.20;100.00
57038;BME280;59942;49.304;8.256;2024-02-26T06:31:06;98577.03;;;6.33;100.00
57038;BME280;59942;49.304;8.256;2024-02-26T06:33:33;98584.59;;;6.36;100.00
57038;BME280;59942;49.304;8.256;2024-02-26T06:35:59;98585.94;;;5.76;100.00
57038;BME280;59942;49.304;8.256;2024-02-26T06:38:31;98594.88;;;6.20;100.00
57038;BME280;59942;49.304;8.256;2024-02-26T06:40:57;98592.69;;;5.79;100.00
57038;BME280;59942;49.304;8.256;2024-02-26T06:43:24;98604.53;;;5.65;100.00
57038;BME280;59942;49.304;8.256;2024-02-26T06:45:50;98597.34;;;6.05;100.00
57038;BME280;59942;49.304;8.256;2024-02-26T06:48:17;98603.84;;;5.95;100.00
57038;BME280;59942;49.304;8.256;2024-02-26T06:50:43;98606.88;;;5.52;100.00
57038;BME280;59942;49.304;8.256;2024-02-26T06:53:10;98606.31;;;5.63;100.00
57038;BME280;59942;49.304;8.256;2024-02-26T06:55:36;98617.72;;;5.93;100.00
57038;BME280;59942;49.304;8.256;2024-02-26T06:58:06;98607.63;;;5.54;100.00
57038;BME280;59942;49.304;8.256;2024-02-26T07:00:32;98607.41;;;5.42;100.00
57038;BME280;59942;49.304;8.256;2024-02-26T07:02:59;98608.91;;;5.46;100.00
57038;BME280;59942;49.304;8.256;2024-02-26T07:05:29;98602.59;;;5.69;100.00
57038;BME280;59942;49.304;8.256;2024-02-26T07:07:55;98606.22;;;5.82;100.00
57038;BME280;59942;49.304;8.256;2024-02-26T07:10:22;98617.84;;;6.07;100.00
57038;BME280;59942;49.304;8.256;2024-02-26T07:12:48;98617.19;;;6.19;100.00
57038;BME280;59942;49.304;8.256;2024-02-26T07:15:15;98618.34;;;6.30;100.00
57038;BME280;59942;49.304;8.256;2024-02-26T07:17:41;98626.25;;;6.42;100.00
57038;BME280;59942;49.304;8.256;2024-02-26T07:20:13;98617.97;;;6.21;100.00
57038;BME280;59942;49.304;8.256;2024-02-26T07:22:40;98626.50;;;6.38;100.00
57038;BME280;59942;49.304;8.256;2024-02-26T07:25:11;98634.91;;;6.25;100.00
57038;BME280;59942;49.304;8.256;2024-02-26T07:27:40;98634.63;;;6.14;100.00
57038;BME280;59942;49.304;8.256;2024-02-26T07:30:09;98639.38;;;6.38;100.00
57038;BME280;59942;49.304;8.256;2024-02-26T07:32:36;98629.34;;;6.49;100.00
57038;BME280;59942;49.304;8.256;2024-02-26T07:35:03;98629.59;;;6.60;100.00
57038;BME280;59942;49.304;8.256;2024-02-26T07:37:35;98632.00;;;6.48;100.00
57038;BME280;59942;49.304;8.256;2024-02-26T07:40:02;98618.06;;;6.52;100.00
57038;BME280;59942;49.304;8.256;2024-02-26T07:42:29;98628.19;;;6.55;100.00
57038;BME280;59942;49.304;8.256;2024-02-26T07:44:56;98636.00;;;6.69;100.00
57038;BME280;59942;49.304;8.256;2024-02-26T07:47:25;98642.13;;;6.51;100.00
57038;BME280;59942;49.304;8.256;2024-02-26T07:49:54;98642.28;;;6.32;100.00
57038;BME280;59942;49.304;8.256;2024-02-26T07:52:22;98645.94;;;6.28;100.00
57038;BME280;59942;49.304;8.256;2024-02-26T07:54:51;98641.97;;;6.54;100.00
57038;BME280;59942;49.304;8.256;2024-02-26T07:57:18;98614.06;;;6.46;100.00
57038;BME280;59942;49.304;8.256;2024-02-26T07:59:45;98646.28;;;6.37;100.00
57038;BME280;59942;49.304;8.256;2024-02-26T08:02:21;98653.25;;;6.35;100.00
57038;BME280;59942;49.304;8.256;2024-02-26T08:04:50;98630.13;;;6.18;100.00
57038;BME280;59942;49.304;8.256;2024-02-26T08:07:16;98643.69;;;6.21;100.00
57038;BME280;59942;49.304;8.256;2024-02-26T08:09:43;98645.06;;;6.45;100.00
57038;BME280;59942;49.304;8.256;2024-02-26T08:12:12;98624.19;;;6.49;100.00
57038;BME280;59942;49.304;8.256;2024-02-26T08:14:39;98646.19;;;7.03;100.00
57038;BME280;59942;49.304;8.256;2024-02-26T08:17:06;98652.06;;;7.05;100.00
57038;BME280;59942;49.304;8.256;2024-02-26T08:19:32;98647.31;;;7.13;100.00
57038;BME280;59942;49.304;8.256;2024-02-26T08:21:59;98650.13;;;7.24;100.00
57038;BME280;59942;49.304;8.256;2024-02-26T08:24:28;98659.59;;;7.40;100.00
57038;BME280;59942;49.304;8.256;2024-02-26T08:26:55;98661.53;;;7.51;100.00
57038;BME280;59942;49.304;8.256;2024-02-26T08:29:22;98659.66;;;7.69;100.00
57038;BME280;59942;49.304;8.256;2024-02-26T08:31:48;98658.72;;;7.70;100.00
57038;BME280;59942;49.304;8.256;2024-02-26T08:34:17;98654.47;;;7.54;100.00
57038;BME280;59942;49.304;8.256;2024-02-26T08:36:46;98658.91;;;7.81;100.00
57038;BME280;59942;49.304;8.256;2024-02-26T08:39:15;98656.63;;;7.76;100.00
57038;BME280;59942;49.304;8.256;2024-02-26T08:41:46;98654.41;;;7.70;100.00
57038;BME280;59942;49.304;8.256;2024-02-26T08:44:12;98662.84;;;7.58;100.00
57038;BME280;59942;49.304;8.256;2024-02-26T08:46:39;98656.81;;;7.43;100.00
57038;BME280;59942;49.304;8.256;2024-02-26T08:49:05;98654.06;;;7.46;100.00
57038;BME280;59942;49.304;8.256;2024-02-26T08:51:41;98627.25;;;7.34;100.00
57038;BME280;59942;49.304;8.256;2024-02-26T08:54:08;98666.94;;;7.16;100.00
57038;BME280;59942;49.304;8.256;2024-02-26T08:56:34;98677.00;;;7.51;100.00
57038;BME280;59942;49.304;8.256;2024-02-26T08:59:01;98674.59;;;7.78;100.00
57038;BME280;59942;49.304;8.256;2024-02-26T09:01:33;98673.22;;;7.42;100.00
57038;BME280;59942;49.304;8.256;2024-02-26T09:04:00;98679.69;;;7.49;100.00
57038;BME280;59942;49.304;8.256;2024-02-26T09:06:28;98675.44;;;7.48;100.00
57038;BME280;59942;49.304;8.256;2024-02-26T09:08:54;98683.16;;;7.78;100.00
57038;BME280;59942;49.304;8.256;2024-02-26T09:11:27;98680.56;;;7.78;100.00
57038;BME280;59942;49.304;8.256;2024-02-26T09:13:53;98684.03;;;8.22;100.00
57038;BME280;59942;49.304;8.256;2024-02-26T09:16:20;98685.66;;;8.09;100.00
57038;BME280;59942;49.304;8.256;2024-02-26T09:18:46;98685.03;;;8.34;100.00
57038;BME280;59942;49.304;8.256;2024-02-26T09:21:14;98685.50;;;8.41;100.00
57038;BME280;59942;49.304;8.256;2024-02-26T09:23:40;98685.66;;;7.80;100.00
57038;BME280;59942;49.304;8.256;2024-02-26T09:26:07;98692.09;;;7.73;100.00
57038;BME280;59942;49.304;8.256;2024-02-26T09:28:33;98692.13;;;8.16;100.00
57038;BME280;59942;49.304;8.256;2024-02-26T09:31:06;98697.69;;;8.39;100.00
57038;BME280;59942;49.304;8.256;2024-02-26T09:33:35;98692.41;;;7.97;100.00
57038;BME280;59942;49.304;8.256;2024-02-26T09:36:09;98694.13;;;7.82;100.00
57038;BME280;59942;49.304;8.256;2024-02-26T09:38:37;98704.69;;;8.08;100.00
57038;BME280;59942;49.304;8.256;2024-02-26T09:41:21;98706.72;;;8.31;100.00
57038;BME280;59942;49.304;8.256;2024-02-26T09:43:48;98698.06;;;8.32;100.00
57038;BME280;59942;49.304;8.256;2024-02-26T09:46:18;98703.19;;;8.04;100.00
57038;BME280;59942;49.304;8.256;2024-02-26T09:48:47;98697.69;;;8.24;100.00
57038;BME280;59942;49.304;8.256;2024-02-26T09:51:14;98702.03;;;8.52;100.00
57038;BME280;59942;49.304;8.256;2024-02-26T09:53:45;98694.50;;;8.91;100.00
57038;BME280;59942;49.304;8.256;2024-02-26T09:56:13;98701.13;;;9.23;100.00
57038;BME280;59942;49.304;8.256;2024-02-26T09:58:41;98700.66;;;9.30;100.00
57038;BME280;59942;49.304;8.256;2024-02-26T10:01:16;98682.06;;;8.83;100.00
57038;BME280;59942;49.304;8.256;2024-02-26T10:03:43;98708.78;;;8.55;100.00
57038;BME280;59942;49.304;8.256;2024-02-26T10:06:16;98718.38;;;9.36;100.00
57038;BME280;59942;49.304;8.256;2024-02-26T10:08:45;98713.78;;;9.67;100.00
57038;BME280;59942;49.304;8.256;2024-02-26T10:11:14;98707.44;;;9.18;100.00
57038;BME280;59942;49.304;8.256;2024-02-26T10:13:41;98711.59;;;9.21;100.00
57038;BME280;59942;49.304;8.256;2024-02-26T10:16:10;98718.00;;;9.55;100.00
57038;BME280;59942;49.304;8.256;2024-02-26T10:21:24;98708.13;;;10.01;100.00
57038;BME280;59942;49.304;8.256;2024-02-26T10:23:54;98716.13;;;10.11;100.00
57038;BME280;59942;49.304;8.256;2024-02-26T10:26:21;98719.09;;;9.11;100.00
57038;BME280;59942;49.304;8.256;2024-02-26T10:28:48;98724.31;;;9.24;100.00
57038;BME280;59942;49.304;8.256;2024-02-26T10:31:20;98717.22;;;9.68;100.00
57038;BME280;59942;49.304;8.256;2024-02-26T10:33:49;98724.34;;;9.64;100.00
57038;BME280;59942;49.304;8.256;2024-02-26T10:36:16;98729.19;;;9.56;100.00
57038;BME280;59942;49.304;8.256;2024-02-26T10:38:43;98731.38;;;9.62;100.00
57038;BME280;59942;49.304;8.256;2024-02-26T10:41:15;98724.47;;;9.35;100.00
57038;BME280;59942;49.304;8.256;2024-02-26T10:43:44;98730.06;;;8.73;100.00
57038;BME280;59942;49.304;8.256;2024-02-26T10:46:11;98730.88;;;8.88;100.00
57038;BME280;59942;49.304;8.256;2024-02-26T10:48:38;98739.59;;;9.42;100.00
57038;BME280;59942;49.304;8.256;2024-02-26T10:51:05;98743.13;;;9.41;100.00
57038;BME280;59942;49.304;8.256;2024-02-26T10:53:33;98733.88;;;9.36;100.00
57038;BME280;59942;49.304;8.256;2024-02-26T10:56:04;98746.78;;;9.91;100.00
57038;BME280;59942;49.304;8.256;2024-02-26T10:58:34;98744.59;;;9.98;100.00
57038;BME280;59942;49.304;8.256;2024-02-26T11:01:03;98742.81;;;9.18;100.00
57038;BME280;59942;49.304;8.256;2024-02-26T11:03:31;98716.63;;;9.90;100.00
57038;BME280;59942;49.304;8.256;2024-02-26T11:06:03;98740.56;;;10.06;100.00
57038;BME280;59942;49.304;8.256;2024-02-26T11:08:34;98747.88;;;9.74;100.00
57038;BME280;59942;49.304;8.256;2024-02-26T11:11:06;98742.06;;;10.36;100.00
57038;BME280;59942;49.304;8.256;2024-02-26T11:13:33;98745.16;;;9.35;100.00
57038;BME280;59942;49.304;8.256;2024-02-26T11:16:03;98761.25;;;10.06;100.00
57038;BME280;59942;49.304;8.256;2024-02-26T11:18:33;98759.19;;;9.99;100.00
57038;BME280;59942;49.304;8.256;2024-02-26T11:21:06;98752.53;;;10.35;100.00
57038;BME280;59942;49.304;8.256;2024-02-26T11:23:34;98725.88;;;10.46;100.00
57038;BME280;59942;49.304;8.256;2024-02-26T11:26:04;98743.97;;;10.84;100.00
57038;BME280;59942;49.304;8.256;2024-02-26T11:28:33;98763.22;;;10.93;100.00
57038;BME280;59942;49.304;8.256;2024-02-26T11:31:03;98756.31;;;10.81;100.00
57038;BME280;59942;49.304;8.256;2024-02-26T11:33:34;98753.84;;;11.03;100.00
57038;BME280;59942;49.304;8.256;2024-02-26T11:36:08;98754.53;;;10.81;99.55
57038;BME280;59942;49.304;8.256;2024-02-26T11:38:38;98745.88;;;11.06;100.00
57038;BME280;59942;49.304;8.256;2024-02-26T11:41:05;98754.97;;;10.75;100.00
57038;BME280;59942;49.304;8.256;2024-02-26T11:43:57;98754.84;;;11.51;100.00
57038;BME280;59942;49.304;8.256;2024-02-26T11:46:28;98753.31;;;10.74;94.38
57038;BME280;59942;49.304;8.256;2024-02-26T11:51:55;98759.00;;;12.81;100.00
57038;BME280;59942;49.304;8.256;2024-02-26T11:54:48;98765.44;;;13.32;100.00
57038;BME280;59942;49.304;8.256;2024-02-26T11:57:39;98753.88;;;12.11;85.24
57038;BME280;59942;49.304;8.256;2024-02-26T12:03:00;98755.13;;;12.64;92.71
57038;BME280;59942;49.304;8.256;2024-02-26T12:05:34;98746.38;;;12.42;81.06
57038;BME280;59942;49.304;8.256;2024-02-26T12:08:07;98738.41;;;13.55;100.00
57038;BME280;59942;49.304;8.256;2024-02-26T12:10:39;98756.78;;;14.38;99.07
57038;BME280;59942;49.304;8.256;2024-02-26T12:13:18;98761.50;;;14.23;96.01
57038;BME280;59942;49.304;8.256;2024-02-26T12:15:58;98737.91;;;13.62;97.44
57038;BME280;59942;49.304;8.256;2024-02-26T12:18:29;98767.72;;;13.02;100.00
57038;BME280;59942;49.304;8.256;2024-02-26T12:21:01;98771.78;;;12.73;100.00
57038;BME280;59942;49.304;8.256;2024-02-26T12:23:28;98769.28;;;13.05;100.00
57038;BME280;59942;49.304;8.256;2024-02-26T12:26:01;98769.22;;;12.14;100.00
57038;BME280;59942;49.304;8.256;2024-02-26T12:28:33;98772.22;;;13.12;100.00
57038;BME280;59942;49.304;8.256;2024-02-26T12:30:59;98770.81;;;12.85;92.99
57038;BME280;59942;49.304;8.256;2024-02-26T12:33:27;98769.44;;;12.00;88.52
57038;BME280;59942;49.304;8.256;2024-02-26T12:35:55;98771.19;;;12.58;85.26
57038;BME280;59942;49.304;8.256;2024-02-26T12:38:24;98768.56;;;13.14;100.00
57038;BME280;59942;49.304;8.256;2024-02-26T12:40:50;98765.53;;;12.64;89.50
57038;BME280;59942;49.304;8.256;2024-02-26T12:43:17;98766.34;;;12.64;84.03
57038;BME280;59942;49.304;8.256;2024-02-26T12:45:43;98768.75;;;13.99;100.00
57038;BME280;59942;49.304;8.256;2024-02-26T12:48:14;98787.09;;;13.44;100.00
57038;BME280;59942;49.304;8.256;2024-02-26T12:50:46;98781.22;;;13.19;100.00
57038;BME280;59942;49.304;8.256;2024-02-26T12:53:16;98786.78;;;13.90;100.00
57038;BME280;59942;49.304;8.256;2024-02-26T12:55:44;98774.59;;;14.12;95.29
57038;BME280;59942;49.304;8.256;2024-02-26T12:58:11;98785.56;;;13.73;96.83
57038;BME280;59942;49.304;8.256;2024-02-26T13:00:38;98777.22;;;12.81;85.08
57038;BME280;59942;49.304;8.256;2024-02-26T13:03:08;98794.91;;;13.44;88.69
57038;BME280;59942;49.304;8.256;2024-02-26T13:05:40;98797.66;;;12.97;100.00
57038;BME280;59942;49.304;8.256;2024-02-26T13:08:06;98797.16;;;12.24;85.45
57038;BME280;59942;49.304;8.256;2024-02-26T13:10:37;98785.38;;;12.76;82.15
57038;BME280;59942;49.304;8.256;2024-02-26T13:13:08;98788.53;;;13.36;100.00
57038;BME280;59942;49.304;8.256;2024-02-26T13:15:35;98789.06;;;13.51;82.73
57038;BME280;59942;49.304;8.256;2024-02-26T13:18:13;98801.16;;;13.52;99.80